Terminal Aerodrome Forecast
Issued by NWS Shreveport, LA

Home | Current Version | Previous Version | Text Only | Print | Product List | Glossary On
Versions: 1 2 3 4 5 6 7 8 9 10 11 12 13 14
000
FTUS44 KSHV 170500
TAFGGG
TAF
KGGG 170525Z 1706/1806 12004KT P6SM FEW250
     FM171200 12004KT P6SM BKN250
     FM171400 12007KT P6SM SCT025 BKN250
     FM171800 12007KT P6SM SCT040 SCT100 BKN250
     FM180000 VRB04KT P6SM FEW045 BKN100=

USA.gov is the U.S. government's official web portal to all federal, state and local government web resources and services.